sensor_id;sensor_type;location;lat;lon;timestamp;P1;durP1;ratioP1;P2;durP2;ratioP2
24559;SDS011;12727;49.934;8.656;2023-07-13T00:02:08;2.88;;;0.65;;
24559;SDS011;12727;49.934;8.656;2023-07-13T00:04:34;4.72;;;0.93;;
24559;SDS011;12727;49.934;8.656;2023-07-13T00:07:00;4.53;;;0.98;;
24559;SDS011;12727;49.934;8.656;2023-07-13T00:09:25;3.97;;;0.98;;
24559;SDS011;12727;49.934;8.656;2023-07-13T00:11:56;2.60;;;0.93;;
24559;SDS011;12727;49.934;8.656;2023-07-13T00:14:23;3.85;;;2.97;;
24559;SDS011;12727;49.934;8.656;2023-07-13T00:16:49;4.93;;;1.20;;
24559;SDS011;12727;49.934;8.656;2023-07-13T00:19:15;3.53;;;1.20;;
24559;SDS011;12727;49.934;8.656;2023-07-13T00:21:41;5.10;;;0.95;;
24559;SDS011;12727;49.934;8.656;2023-07-13T00:24:08;4.68;;;0.95;;
24559;SDS011;12727;49.934;8.656;2023-07-13T00:26:40;2.92;;;1.00;;
24559;SDS011;12727;49.934;8.656;2023-07-13T00:29:10;3.05;;;0.88;;
24559;SDS011;12727;49.934;8.656;2023-07-13T00:31:36;5.38;;;1.00;;
24559;SDS011;12727;49.934;8.656;2023-07-13T00:34:02;1.88;;;0.90;;
24559;SDS011;12727;49.934;8.656;2023-07-13T00:36:29;4.47;;;0.95;;
24559;SDS011;12727;49.934;8.656;2023-07-13T00:38:55;4.18;;;0.90;;
24559;SDS011;12727;49.934;8.656;2023-07-13T00:41:22;4.40;;;0.70;;
24559;SDS011;12727;49.934;8.656;2023-07-13T00:43:47;2.97;;;0.90;;
24559;SDS011;12727;49.934;8.656;2023-07-13T00:46:24;3.92;;;1.20;;
24559;SDS011;12727;49.934;8.656;2023-07-13T00:48:59;3.70;;;0.98;;
24559;SDS011;12727;49.934;8.656;2023-07-13T00:51:32;3.33;;;0.90;;
24559;SDS011;12727;49.934;8.656;2023-07-13T00:54:03;2.40;;;1.00;;
24559;SDS011;12727;49.934;8.656;2023-07-13T00:56:31;3.17;;;0.77;;
24559;SDS011;12727;49.934;8.656;2023-07-13T00:58:58;3.63;;;0.70;;
24559;SDS011;12727;49.934;8.656;2023-07-13T01:01:27;2.95;;;1.10;;
24559;SDS011;12727;49.934;8.656;2023-07-13T01:03:53;3.83;;;1.08;;
24559;SDS011;12727;49.934;8.656;2023-07-13T01:06:19;3.53;;;0.95;;
24559;SDS011;12727;49.934;8.656;2023-07-13T01:08:44;1.80;;;0.70;;
24559;SDS011;12727;49.934;8.656;2023-07-13T01:11:10;3.05;;;1.00;;
24559;SDS011;12727;49.934;8.656;2023-07-13T01:13:36;3.47;;;1.17;;
24559;SDS011;12727;49.934;8.656;2023-07-13T01:16:03;2.35;;;1.30;;
24559;SDS011;12727;49.934;8.656;2023-07-13T01:18:36;3.03;;;0.90;;
24559;SDS011;12727;49.934;8.656;2023-07-13T01:21:03;4.20;;;1.00;;
24559;SDS011;12727;49.934;8.656;2023-07-13T01:23:29;2.13;;;1.00;;
24559;SDS011;12727;49.934;8.656;2023-07-13T01:25:56;2.88;;;1.10;;
24559;SDS011;12727;49.934;8.656;2023-07-13T01:28:23;2.90;;;0.88;;
24559;SDS011;12727;49.934;8.656;2023-07-13T01:30:52;6.72;;;1.10;;
24559;SDS011;12727;49.934;8.656;2023-07-13T01:33:19;5.10;;;1.08;;
24559;SDS011;12727;49.934;8.656;2023-07-13T01:35:45;2.20;;;1.00;;
24559;SDS011;12727;49.934;8.656;2023-07-13T01:38:13;3.13;;;1.08;;
24559;SDS011;12727;49.934;8.656;2023-07-13T01:40:40;3.85;;;1.00;;
24559;SDS011;12727;49.934;8.656;2023-07-13T01:43:06;3.15;;;1.52;;
24559;SDS011;12727;49.934;8.656;2023-07-13T01:45:32;3.45;;;1.17;;
24559;SDS011;12727;49.934;8.656;2023-07-13T01:47:57;1.85;;;1.17;;
24559;SDS011;12727;49.934;8.656;2023-07-13T01:50:24;3.15;;;1.20;;
24559;SDS011;12727;49.934;8.656;2023-07-13T01:52:51;3.47;;;1.20;;
24559;SDS011;12727;49.934;8.656;2023-07-13T01:55:17;3.92;;;1.15;;
24559;SDS011;12727;49.934;8.656;2023-07-13T01:57:42;2.55;;;1.15;;
24559;SDS011;12727;49.934;8.656;2023-07-13T02:00:09;2.63;;;1.15;;
24559;SDS011;12727;49.934;8.656;2023-07-13T02:02:35;3.05;;;1.30;;
24559;SDS011;12727;49.934;8.656;2023-07-13T02:05:01;2.10;;;1.10;;
24559;SDS011;12727;49.934;8.656;2023-07-13T02:07:26;2.13;;;1.10;;
24559;SDS011;12727;49.934;8.656;2023-07-13T02:09:52;2.55;;;1.27;;
24559;SDS011;12727;49.934;8.656;2023-07-13T02:12:18;2.92;;;1.20;;
24559;SDS011;12727;49.934;8.656;2023-07-13T02:14:44;4.13;;;1.23;;
24559;SDS011;12727;49.934;8.656;2023-07-13T02:17:10;4.75;;;1.48;;
24559;SDS011;12727;49.934;8.656;2023-07-13T02:19:36;2.40;;;1.40;;
24559;SDS011;12727;49.934;8.656;2023-07-13T02:22:02;3.40;;;1.40;;
24559;SDS011;12727;49.934;8.656;2023-07-13T02:24:27;5.32;;;1.42;;
24559;SDS011;12727;49.934;8.656;2023-07-13T02:26:53;2.20;;;1.50;;
24559;SDS011;12727;49.934;8.656;2023-07-13T02:29:19;3.60;;;1.52;;
24559;SDS011;12727;49.934;8.656;2023-07-13T02:31:44;4.45;;;1.33;;
24559;SDS011;12727;49.934;8.656;2023-07-13T02:34:10;3.40;;;1.30;;
24559;SDS011;12727;49.934;8.656;2023-07-13T02:36:36;2.67;;;1.38;;
24559;SDS011;12727;49.934;8.656;2023-07-13T02:39:03;4.30;;;1.40;;
24559;SDS011;12727;49.934;8.656;2023-07-13T02:41:30;6.60;;;1.45;;
24559;SDS011;12727;49.934;8.656;2023-07-13T02:43:57;5.13;;;1.40;;
24559;SDS011;12727;49.934;8.656;2023-07-13T02:46:28;7.15;;;1.60;;
24559;SDS011;12727;49.934;8.656;2023-07-13T02:49:01;4.95;;;1.58;;
24559;SDS011;12727;49.934;8.656;2023-07-13T02:51:27;2.53;;;1.60;;
24559;SDS011;12727;49.934;8.656;2023-07-13T02:53:53;3.70;;;1.40;;
24559;SDS011;12727;49.934;8.656;2023-07-13T02:56:23;2.78;;;1.40;;
24559;SDS011;12727;49.934;8.656;2023-07-13T02:58:50;5.20;;;1.60;;
24559;SDS011;12727;49.934;8.656;2023-07-13T03:01:16;4.22;;;1.67;;
24559;SDS011;12727;49.934;8.656;2023-07-13T03:03:46;4.97;;;1.45;;
24559;SDS011;12727;49.934;8.656;2023-07-13T03:06:13;2.80;;;1.60;;
24559;SDS011;12727;49.934;8.656;2023-07-13T03:08:39;4.53;;;1.30;;
24559;SDS011;12727;49.934;8.656;2023-07-13T03:11:12;2.53;;;1.25;;
24559;SDS011;12727;49.934;8.656;2023-07-13T03:13:40;3.58;;;1.30;;
24559;SDS011;12727;49.934;8.656;2023-07-13T03:16:07;2.10;;;1.60;;
24559;SDS011;12727;49.934;8.656;2023-07-13T03:18:34;3.95;;;1.65;;
24559;SDS011;12727;49.934;8.656;2023-07-13T03:21:01;7.72;;;1.60;;
24559;SDS011;12727;49.934;8.656;2023-07-13T03:23:26;4.55;;;1.52;;
24559;SDS011;12727;49.934;8.656;2023-07-13T03:26:05;2.88;;;2.00;;
24559;SDS011;12727;49.934;8.656;2023-07-13T03:28:33;2.05;;;1.50;;
24559;SDS011;12727;49.934;8.656;2023-07-13T03:31:00;2.88;;;1.50;;
24559;SDS011;12727;49.934;8.656;2023-07-13T03:33:31;2.70;;;1.50;;
24559;SDS011;12727;49.934;8.656;2023-07-13T03:35:57;3.65;;;1.40;;
24559;SDS011;12727;49.934;8.656;2023-07-13T03:38:23;3.92;;;1.67;;
24559;SDS011;12727;49.934;8.656;2023-07-13T03:40:49;5.70;;;2.00;;
24559;SDS011;12727;49.934;8.656;2023-07-13T03:43:14;3.88;;;1.80;;
24559;SDS011;12727;49.934;8.656;2023-07-13T03:45:40;3.30;;;1.80;;
24559;SDS011;12727;49.934;8.656;2023-07-13T03:48:06;3.28;;;1.70;;
24559;SDS011;12727;49.934;8.656;2023-07-13T03:50:31;3.35;;;1.50;;
24559;SDS011;12727;49.934;8.656;2023-07-13T03:52:58;4.70;;;1.75;;
24559;SDS011;12727;49.934;8.656;2023-07-13T03:55:24;3.55;;;1.77;;
24559;SDS011;12727;49.934;8.656;2023-07-13T03:57:53;2.92;;;1.50;;
24559;SDS011;12727;49.934;8.656;2023-07-13T04:00:23;4.05;;;1.85;;
24559;SDS011;12727;49.934;8.656;2023-07-13T04:02:49;3.03;;;1.80;;
24559;SDS011;12727;49.934;8.656;2023-07-13T04:05:15;3.40;;;1.55;;
24559;SDS011;12727;49.934;8.656;2023-07-13T04:07:41;3.83;;;2.15;;
24559;SDS011;12727;49.934;8.656;2023-07-13T04:10:07;2.58;;;1.73;;
24559;SDS011;12727;49.934;8.656;2023-07-13T04:12:33;3.58;;;1.70;;
24559;SDS011;12727;49.934;8.656;2023-07-13T04:14:58;4.45;;;1.70;;
24559;SDS011;12727;49.934;8.656;2023-07-13T04:17:24;8.38;;;2.13;;
24559;SDS011;12727;49.934;8.656;2023-07-13T04:19:50;3.40;;;1.92;;
24559;SDS011;12727;49.934;8.656;2023-07-13T04:22:15;4.20;;;2.03;;
24559;SDS011;12727;49.934;8.656;2023-07-13T04:24:41;5.70;;;1.85;;
24559;SDS011;12727;49.934;8.656;2023-07-13T04:27:07;4.57;;;2.10;;
24559;SDS011;12727;49.934;8.656;2023-07-13T04:29:33;5.40;;;2.15;;
24559;SDS011;12727;49.934;8.656;2023-07-13T04:31:58;4.20;;;1.80;;
24559;SDS011;12727;49.934;8.656;2023-07-13T04:34:24;5.22;;;2.10;;
24559;SDS011;12727;49.934;8.656;2023-07-13T04:36:50;7.03;;;2.33;;
24559;SDS011;12727;49.934;8.656;2023-07-13T04:39:15;3.80;;;1.98;;
24559;SDS011;12727;49.934;8.656;2023-07-13T04:41:41;5.65;;;2.08;;
24559;SDS011;12727;49.934;8.656;2023-07-13T04:44:07;7.00;;;2.20;;
24559;SDS011;12727;49.934;8.656;2023-07-13T04:46:33;2.90;;;1.88;;
24559;SDS011;12727;49.934;8.656;2023-07-13T04:48:58;4.05;;;2.25;;
24559;SDS011;12727;49.934;8.656;2023-07-13T04:51:24;3.10;;;2.00;;
24559;SDS011;12727;49.934;8.656;2023-07-13T04:53:50;3.25;;;2.10;;
24559;SDS011;12727;49.934;8.656;2023-07-13T04:56:16;6.13;;;2.40;;
24559;SDS011;12727;49.934;8.656;2023-07-13T04:58:41;4.75;;;1.80;;
24559;SDS011;12727;49.934;8.656;2023-07-13T05:01:07;7.00;;;2.40;;
24559;SDS011;12727;49.934;8.656;2023-07-13T05:03:34;4.18;;;1.80;;
24559;SDS011;12727;49.934;8.656;2023-07-13T05:06:01;4.13;;;1.77;;
24559;SDS011;12727;49.934;8.656;2023-07-13T05:08:28;3.47;;;1.70;;
24559;SDS011;12727;49.934;8.656;2023-07-13T05:10:54;3.53;;;1.88;;
24559;SDS011;12727;49.934;8.656;2023-07-13T05:13:20;5.68;;;2.22;;
24559;SDS011;12727;49.934;8.656;2023-07-13T05:16:00;5.85;;;1.70;;
24559;SDS011;12727;49.934;8.656;2023-07-13T05:18:29;3.75;;;1.63;;
24559;SDS011;12727;49.934;8.656;2023-07-13T05:20:59;4.90;;;1.70;;
24559;SDS011;12727;49.934;8.656;2023-07-13T05:23:27;4.35;;;1.70;;
24559;SDS011;12727;49.934;8.656;2023-07-13T05:25:53;7.38;;;1.73;;
24559;SDS011;12727;49.934;8.656;2023-07-13T05:28:18;5.30;;;1.70;;
24559;SDS011;12727;49.934;8.656;2023-07-13T05:30:47;4.72;;;1.98;;
24559;SDS011;12727;49.934;8.656;2023-07-13T05:33:14;3.83;;;1.48;;
24559;SDS011;12727;49.934;8.656;2023-07-13T05:35:39;2.67;;;1.30;;
24559;SDS011;12727;49.934;8.656;2023-07-13T05:38:05;5.00;;;1.35;;
24559;SDS011;12727;49.934;8.656;2023-07-13T05:40:31;4.15;;;1.27;;
24559;SDS011;12727;49.934;8.656;2023-07-13T05:42:57;4.22;;;1.30;;
24559;SDS011;12727;49.934;8.656;2023-07-13T05:45:23;3.10;;;1.30;;
24559;SDS011;12727;49.934;8.656;2023-07-13T05:47:48;3.10;;;0.93;;
24559;SDS011;12727;49.934;8.656;2023-07-13T05:50:14;4.00;;;1.60;;
24559;SDS011;12727;49.934;8.656;2023-07-13T05:52:40;3.97;;;1.30;;
24559;SDS011;12727;49.934;8.656;2023-07-13T05:55:05;3.42;;;0.85;;
24559;SDS011;12727;49.934;8.656;2023-07-13T05:57:31;4.80;;;1.10;;
24559;SDS011;12727;49.934;8.656;2023-07-13T05:59:57;1.80;;;1.00;;
24559;SDS011;12727;49.934;8.656;2023-07-13T06:02:22;3.58;;;1.30;;
24559;SDS011;12727;49.934;8.656;2023-07-13T06:04:48;4.75;;;1.05;;
24559;SDS011;12727;49.934;8.656;2023-07-13T06:07:14;4.25;;;1.00;;
24559;SDS011;12727;49.934;8.656;2023-07-13T06:09:40;3.85;;;1.10;;
24559;SDS011;12727;49.934;8.656;2023-07-13T06:12:05;3.85;;;1.10;;
24559;SDS011;12727;49.934;8.656;2023-07-13T06:14:31;2.53;;;1.20;;
24559;SDS011;12727;49.934;8.656;2023-07-13T06:16:57;5.97;;;1.20;;
24559;SDS011;12727;49.934;8.656;2023-07-13T06:19:23;2.05;;;1.00;;
24559;SDS011;12727;49.934;8.656;2023-07-13T06:21:48;2.97;;;1.10;;
24559;SDS011;12727;49.934;8.656;2023-07-13T06:24:14;3.13;;;0.80;;
24559;SDS011;12727;49.934;8.656;2023-07-13T06:26:39;2.15;;;0.85;;
24559;SDS011;12727;49.934;8.656;2023-07-13T06:29:05;3.22;;;0.82;;
24559;SDS011;12727;49.934;8.656;2023-07-13T06:31:31;4.00;;;0.70;;
24559;SDS011;12727;49.934;8.656;2023-07-13T06:33:56;3.17;;;0.90;;
24559;SDS011;12727;49.934;8.656;2023-07-13T06:36:22;2.10;;;0.70;;
24559;SDS011;12727;49.934;8.656;2023-07-13T06:38:47;1.83;;;0.70;;
24559;SDS011;12727;49.934;8.656;2023-07-13T06:41:13;5.13;;;1.08;;
24559;SDS011;12727;49.934;8.656;2023-07-13T06:43:39;3.08;;;0.82;;
24559;SDS011;12727;49.934;8.656;2023-07-13T06:46:04;1.58;;;0.80;;
24559;SDS011;12727;49.934;8.656;2023-07-13T06:48:30;2.15;;;0.75;;
24559;SDS011;12727;49.934;8.656;2023-07-13T06:50:55;2.25;;;0.75;;
24559;SDS011;12727;49.934;8.656;2023-07-13T06:53:22;3.25;;;0.60;;
24559;SDS011;12727;49.934;8.656;2023-07-13T06:55:47;3.88;;;0.70;;
24559;SDS011;12727;49.934;8.656;2023-07-13T06:58:14;1.83;;;0.60;;
24559;SDS011;12727;49.934;8.656;2023-07-13T07:00:41;3.55;;;0.70;;
24559;SDS011;12727;49.934;8.656;2023-07-13T07:03:07;1.70;;;0.45;;
24559;SDS011;12727;49.934;8.656;2023-07-13T07:05:32;3.75;;;0.68;;
24559;SDS011;12727;49.934;8.656;2023-07-13T07:07:58;3.50;;;0.60;;
24559;SDS011;12727;49.934;8.656;2023-07-13T07:10:24;2.55;;;0.80;;
24559;SDS011;12727;49.934;8.656;2023-07-13T07:12:50;2.38;;;0.50;;
24559;SDS011;12727;49.934;8.656;2023-07-13T07:15:16;5.72;;;0.80;;
24559;SDS011;12727;49.934;8.656;2023-07-13T07:17:42;3.42;;;0.70;;
24559;SDS011;12727;49.934;8.656;2023-07-13T07:20:08;1.67;;;0.70;;
24559;SDS011;12727;49.934;8.656;2023-07-13T07:22:35;2.63;;;0.70;;
24559;SDS011;12727;49.934;8.656;2023-07-13T07:25:00;3.58;;;0.60;;
24559;SDS011;12727;49.934;8.656;2023-07-13T07:27:26;2.78;;;0.60;;
24559;SDS011;12727;49.934;8.656;2023-07-13T07:29:52;1.73;;;0.50;;
24559;SDS011;12727;49.934;8.656;2023-07-13T07:32:18;1.77;;;0.40;;
24559;SDS011;12727;49.934;8.656;2023-07-13T07:34:44;2.40;;;0.60;;
24559;SDS011;12727;49.934;8.656;2023-07-13T07:37:10;3.45;;;0.57;;
24559;SDS011;12727;49.934;8.656;2023-07-13T07:39:37;2.47;;;0.63;;
24559;SDS011;12727;49.934;8.656;2023-07-13T07:42:03;2.35;;;0.70;;
24559;SDS011;12727;49.934;8.656;2023-07-13T07:44:30;2.70;;;0.77;;
24559;SDS011;12727;49.934;8.656;2023-07-13T07:46:56;4.32;;;0.70;;
24559;SDS011;12727;49.934;8.656;2023-07-13T07:49:22;4.40;;;0.60;;
24559;SDS011;12727;49.934;8.656;2023-07-13T07:51:47;2.05;;;0.55;;
24559;SDS011;12727;49.934;8.656;2023-07-13T07:54:13;1.80;;;0.70;;
24559;SDS011;12727;49.934;8.656;2023-07-13T07:56:41;3.15;;;0.80;;
24559;SDS011;12727;49.934;8.656;2023-07-13T07:59:07;3.10;;;0.70;;
24559;SDS011;12727;49.934;8.656;2023-07-13T08:01:33;1.98;;;0.70;;
24559;SDS011;12727;49.934;8.656;2023-07-13T08:03:58;2.25;;;0.47;;
24559;SDS011;12727;49.934;8.656;2023-07-13T08:06:24;2.92;;;0.70;;
24559;SDS011;12727;49.934;8.656;2023-07-13T08:08:50;4.30;;;0.70;;
24559;SDS011;12727;49.934;8.656;2023-07-13T08:11:16;2.83;;;0.90;;
24559;SDS011;12727;49.934;8.656;2023-07-13T08:13:42;3.08;;;0.70;;
24559;SDS011;12727;49.934;8.656;2023-07-13T08:16:08;4.65;;;0.68;;
24559;SDS011;12727;49.934;8.656;2023-07-13T08:18:33;2.22;;;0.77;;
24559;SDS011;12727;49.934;8.656;2023-07-13T08:21:03;3.25;;;0.90;;
24559;SDS011;12727;49.934;8.656;2023-07-13T08:23:29;4.18;;;0.80;;
24559;SDS011;12727;49.934;8.656;2023-07-13T08:25:55;1.88;;;0.70;;
24559;SDS011;12727;49.934;8.656;2023-07-13T08:28:22;2.22;;;0.60;;
24559;SDS011;12727;49.934;8.656;2023-07-13T08:30:49;4.35;;;0.70;;
24559;SDS011;12727;49.934;8.656;2023-07-13T08:33:18;2.80;;;0.68;;
24559;SDS011;12727;49.934;8.656;2023-07-13T08:35:48;1.85;;;0.60;;
24559;SDS011;12727;49.934;8.656;2023-07-13T08:38:14;2.45;;;0.57;;
24559;SDS011;12727;49.934;8.656;2023-07-13T08:40:42;4.15;;;0.75;;
24559;SDS011;12727;49.934;8.656;2023-07-13T08:43:18;2.42;;;0.60;;
24559;SDS011;12727;49.934;8.656;2023-07-13T08:45:48;5.18;;;0.70;;
24559;SDS011;12727;49.934;8.656;2023-07-13T08:48:25;4.47;;;1.05;;
24559;SDS011;12727;49.934;8.656;2023-07-13T08:53:34;1.05;;;0.50;;
24559;SDS011;12727;49.934;8.656;2023-07-13T08:56:04;1.80;;;0.60;;
24559;SDS011;12727;49.934;8.656;2023-07-13T08:58:36;1.70;;;0.60;;
24559;SDS011;12727;49.934;8.656;2023-07-13T09:01:12;5.57;;;1.02;;
24559;SDS011;12727;49.934;8.656;2023-07-13T09:06:43;2.08;;;0.70;;
24559;SDS011;12727;49.934;8.656;2023-07-13T09:15:04;3.88;;;0.70;;
24559;SDS011;12727;49.934;8.656;2023-07-13T09:17:41;2.83;;;0.60;;
24559;SDS011;12727;49.934;8.656;2023-07-13T09:22:52;1.83;;;0.50;;
24559;SDS011;12727;49.934;8.656;2023-07-13T09:27:55;2.58;;;0.73;;
24559;SDS011;12727;49.934;8.656;2023-07-13T09:30:40;5.13;;;0.50;;
24559;SDS011;12727;49.934;8.656;2023-07-13T09:33:16;3.10;;;0.70;;
24559;SDS011;12727;49.934;8.656;2023-07-13T09:35:42;3.20;;;0.68;;
24559;SDS011;12727;49.934;8.656;2023-07-13T09:38:11;1.83;;;0.47;;
24559;SDS011;12727;49.934;8.656;2023-07-13T09:40:42;1.70;;;0.50;;
24559;SDS011;12727;49.934;8.656;2023-07-13T09:43:15;2.22;;;0.60;;
24559;SDS011;12727;49.934;8.656;2023-07-13T09:45:41;1.98;;;0.50;;
24559;SDS011;12727;49.934;8.656;2023-07-13T09:48:13;1.55;;;0.57;;
24559;SDS011;12727;49.934;8.656;2023-07-13T09:50:40;3.28;;;0.60;;
24559;SDS011;12727;49.934;8.656;2023-07-13T09:53:18;1.33;;;0.50;;
24559;SDS011;12727;49.934;8.656;2023-07-13T09:55:47;2.22;;;0.60;;
24559;SDS011;12727;49.934;8.656;2023-07-13T09:58:17;0.93;;;0.32;;
24559;SDS011;12727;49.934;8.656;2023-07-13T10:00:58;3.50;;;0.68;;
24559;SDS011;12727;49.934;8.656;2023-07-13T10:03:27;1.73;;;0.60;;
24559;SDS011;12727;49.934;8.656;2023-07-13T10:05:57;1.15;;;0.60;;
24559;SDS011;12727;49.934;8.656;2023-07-13T10:08:36;3.05;;;0.60;;
24559;SDS011;12727;49.934;8.656;2023-07-13T10:11:12;4.53;;;0.57;;
24559;SDS011;12727;49.934;8.656;2023-07-13T10:13:46;4.65;;;0.70;;
24559;SDS011;12727;49.934;8.656;2023-07-13T10:16:20;3.42;;;0.75;;
24559;SDS011;12727;49.934;8.656;2023-07-13T10:18:54;2.35;;;0.63;;
24559;SDS011;12727;49.934;8.656;2023-07-13T10:21:23;2.65;;;0.65;;
24559;SDS011;12727;49.934;8.656;2023-07-13T10:23:57;0.98;;;0.50;;
24559;SDS011;12727;49.934;8.656;2023-07-13T10:26:31;1.98;;;0.50;;
24559;SDS011;12727;49.934;8.656;2023-07-13T10:29:01;1.95;;;0.52;;
24559;SDS011;12727;49.934;8.656;2023-07-13T10:31:33;2.10;;;0.50;;
24559;SDS011;12727;49.934;8.656;2023-07-13T10:34:02;2.60;;;0.70;;
24559;SDS011;12727;49.934;8.656;2023-07-13T10:36:29;2.35;;;0.50;;
24559;SDS011;12727;49.934;8.656;2023-07-13T10:39:00;2.05;;;0.55;;
24559;SDS011;12727;49.934;8.656;2023-07-13T10:41:28;2.38;;;0.60;;
24559;SDS011;12727;49.934;8.656;2023-07-13T10:43:58;2.88;;;0.60;;
24559;SDS011;12727;49.934;8.656;2023-07-13T10:46:25;1.98;;;0.60;;
24559;SDS011;12727;49.934;8.656;2023-07-13T10:48:55;1.60;;;0.52;;
24559;SDS011;12727;49.934;8.656;2023-07-13T10:51:24;1.27;;;0.43;;
24559;SDS011;12727;49.934;8.656;2023-07-13T10:56:42;2.65;;;0.75;;
24559;SDS011;12727;49.934;8.656;2023-07-13T11:04:47;1.52;;;0.70;;
24559;SDS011;12727;49.934;8.656;2023-07-13T11:07:21;1.13;;;0.70;;
24559;SDS011;12727;49.934;8.656;2023-07-13T11:09:55;1.35;;;0.55;;
24559;SDS011;12727;49.934;8.656;2023-07-13T11:20:32;5.40;;;0.70;;
24559;SDS011;12727;49.934;8.656;2023-07-13T11:25:41;2.80;;;0.50;;
24559;SDS011;12727;49.934;8.656;2023-07-13T11:30:39;2.63;;;0.70;;
24559;SDS011;12727;49.934;8.656;2023-07-13T11:33:12;3.03;;;1.00;;
24559;SDS011;12727;49.934;8.656;2023-07-13T11:38:36;1.95;;;0.60;;
24559;SDS011;12727;49.934;8.656;2023-07-13T11:41:19;2.80;;;0.77;;
24559;SDS011;12727;49.934;8.656;2023-07-13T11:43:55;0.52;;;0.30;;
24559;SDS011;12727;49.934;8.656;2023-07-13T11:46:29;3.58;;;0.90;;
24559;SDS011;12727;49.934;8.656;2023-07-13T11:48:55;3.72;;;0.75;;
24559;SDS011;12727;49.934;8.656;2023-07-13T11:51:21;1.80;;;0.47;;
24559;SDS011;12727;49.934;8.656;2023-07-13T11:53:53;1.35;;;0.60;;
24559;SDS011;12727;49.934;8.656;2023-07-13T11:56:19;1.55;;;0.90;;
24559;SDS011;12727;49.934;8.656;2023-07-13T11:58:48;3.53;;;0.60;;
24559;SDS011;12727;49.934;8.656;2023-07-13T12:01:20;3.92;;;0.80;;
24559;SDS011;12727;49.934;8.656;2023-07-13T12:03:51;4.72;;;0.77;;
24559;SDS011;12727;49.934;8.656;2023-07-13T12:06:23;1.27;;;0.75;;
24559;SDS011;12727;49.934;8.656;2023-07-13T12:08:49;4.07;;;1.00;;
24559;SDS011;12727;49.934;8.656;2023-07-13T12:11:15;5.50;;;0.80;;
24559;SDS011;12727;49.934;8.656;2023-07-13T12:13:43;1.33;;;0.60;;
24559;SDS011;12727;49.934;8.656;2023-07-13T12:16:29;2.38;;;0.50;;
24559;SDS011;12727;49.934;8.656;2023-07-13T12:18:57;1.98;;;0.50;;
24559;SDS011;12727;49.934;8.656;2023-07-13T12:21:38;1.30;;;0.60;;
24559;SDS011;12727;49.934;8.656;2023-07-13T12:24:05;2.55;;;0.60;;
24559;SDS011;12727;49.934;8.656;2023-07-13T12:26:40;2.40;;;0.70;;
24559;SDS011;12727;49.934;8.656;2023-07-13T12:29:07;4.43;;;0.70;;
24559;SDS011;12727;49.934;8.656;2023-07-13T12:31:37;2.03;;;0.60;;
24559;SDS011;12727;49.934;8.656;2023-07-13T12:36:50;4.28;;;0.80;;
24559;SDS011;12727;49.934;8.656;2023-07-13T12:41:46;3.25;;;0.90;;
24559;SDS011;12727;49.934;8.656;2023-07-13T12:44:15;2.47;;;0.82;;
24559;SDS011;12727;49.934;8.656;2023-07-13T12:46:56;2.30;;;0.63;;
24559;SDS011;12727;49.934;8.656;2023-07-13T12:49:26;4.20;;;0.68;;
24559;SDS011;12727;49.934;8.656;2023-07-13T12:51:58;3.40;;;0.75;;
24559;SDS011;12727;49.934;8.656;2023-07-13T12:54:25;2.40;;;0.90;;
24559;SDS011;12727;49.934;8.656;2023-07-13T12:56:52;1.83;;;0.80;;
24559;SDS011;12727;49.934;8.656;2023-07-13T12:59:21;2.35;;;0.95;;
24559;SDS011;12727;49.934;8.656;2023-07-13T13:01:48;2.03;;;0.77;;
24559;SDS011;12727;49.934;8.656;2023-07-13T13:04:15;3.67;;;0.80;;
24559;SDS011;12727;49.934;8.656;2023-07-13T13:06:41;2.72;;;0.63;;
24559;SDS011;12727;49.934;8.656;2023-07-13T13:09:11;3.25;;;0.77;;
24559;SDS011;12727;49.934;8.656;2023-07-13T13:11:38;4.32;;;0.90;;
24559;SDS011;12727;49.934;8.656;2023-07-13T13:14:05;1.77;;;0.73;;
24559;SDS011;12727;49.934;8.656;2023-07-13T13:16:32;3.17;;;0.52;;
24559;SDS011;12727;49.934;8.656;2023-07-13T13:19:21;3.05;;;0.70;;
24559;SDS011;12727;49.934;8.656;2023-07-13T13:21:50;2.92;;;0.80;;
24559;SDS011;12727;49.934;8.656;2023-07-13T13:24:18;1.75;;;0.63;;
24559;SDS011;12727;49.934;8.656;2023-07-13T13:26:46;1.33;;;0.70;;
24559;SDS011;12727;49.934;8.656;2023-07-13T13:29:17;3.05;;;0.70;;
24559;SDS011;12727;49.934;8.656;2023-07-13T13:31:49;1.90;;;0.50;;
24559;SDS011;12727;49.934;8.656;2023-07-13T13:34:16;1.30;;;0.60;;
24559;SDS011;12727;49.934;8.656;2023-07-13T13:36:43;3.40;;;0.82;;
24559;SDS011;12727;49.934;8.656;2023-07-13T13:39:20;5.60;;;1.05;;
24559;SDS011;12727;49.934;8.656;2023-07-13T13:41:47;3.38;;;0.70;;
24559;SDS011;12727;49.934;8.656;2023-07-13T13:44:15;4.38;;;0.77;;
24559;SDS011;12727;49.934;8.656;2023-07-13T13:46:41;4.90;;;0.90;;
24559;SDS011;12727;49.934;8.656;2023-07-13T13:49:13;2.97;;;0.60;;
24559;SDS011;12727;49.934;8.656;2023-07-13T13:51:41;3.22;;;0.88;;
24559;SDS011;12727;49.934;8.656;2023-07-13T13:54:10;4.32;;;0.88;;
24559;SDS011;12727;49.934;8.656;2023-07-13T13:56:37;2.20;;;0.70;;
24559;SDS011;12727;49.934;8.656;2023-07-13T13:59:03;4.10;;;0.85;;
24559;SDS011;12727;49.934;8.656;2023-07-13T14:01:29;3.58;;;0.88;;
24559;SDS011;12727;49.934;8.656;2023-07-13T14:03:56;3.28;;;0.70;;
24559;SDS011;12727;49.934;8.656;2023-07-13T14:06:22;2.92;;;0.63;;
24559;SDS011;12727;49.934;8.656;2023-07-13T14:08:48;2.58;;;0.73;;
24559;SDS011;12727;49.934;8.656;2023-07-13T14:11:14;4.13;;;0.82;;
24559;SDS011;12727;49.934;8.656;2023-07-13T14:13:42;6.43;;;0.80;;
24559;SDS011;12727;49.934;8.656;2023-07-13T14:16:12;1.42;;;0.63;;
24559;SDS011;12727;49.934;8.656;2023-07-13T14:18:45;2.10;;;0.70;;
24559;SDS011;12727;49.934;8.656;2023-07-13T14:21:15;2.00;;;0.60;;
24559;SDS011;12727;49.934;8.656;2023-07-13T14:23:43;4.47;;;0.80;;
24559;SDS011;12727;49.934;8.656;2023-07-13T14:26:10;3.05;;;0.47;;
24559;SDS011;12727;49.934;8.656;2023-07-13T14:28:38;3.20;;;0.90;;
24559;SDS011;12727;49.934;8.656;2023-07-13T14:31:07;2.55;;;0.60;;
24559;SDS011;12727;49.934;8.656;2023-07-13T14:33:33;1.55;;;0.60;;
24559;SDS011;12727;49.934;8.656;2023-07-13T14:35:58;2.05;;;0.75;;
24559;SDS011;12727;49.934;8.656;2023-07-13T14:38:24;2.78;;;0.70;;
24559;SDS011;12727;49.934;8.656;2023-07-13T14:40:49;2.58;;;0.75;;
24559;SDS011;12727;49.934;8.656;2023-07-13T14:43:16;3.47;;;0.93;;
24559;SDS011;12727;49.934;8.656;2023-07-13T14:45:46;2.83;;;0.70;;
24559;SDS011;12727;49.934;8.656;2023-07-13T14:48:15;1.60;;;0.60;;
24559;SDS011;12727;49.934;8.656;2023-07-13T14:50:44;2.17;;;0.80;;
24559;SDS011;12727;49.934;8.656;2023-07-13T14:53:11;2.67;;;0.90;;
24559;SDS011;12727;49.934;8.656;2023-07-13T14:55:38;4.03;;;0.60;;
24559;SDS011;12727;49.934;8.656;2023-07-13T14:58:04;2.33;;;0.70;;
24559;SDS011;12727;49.934;8.656;2023-07-13T15:00:29;1.65;;;0.52;;
24559;SDS011;12727;49.934;8.656;2023-07-13T15:02:56;2.17;;;0.75;;
24559;SDS011;12727;49.934;8.656;2023-07-13T15:05:27;3.78;;;0.70;;
24559;SDS011;12727;49.934;8.656;2023-07-13T15:07:56;1.77;;;0.60;;
24559;SDS011;12727;49.934;8.656;2023-07-13T15:10:25;1.00;;;0.60;;
24559;SDS011;12727;49.934;8.656;2023-07-13T15:12:57;3.50;;;0.70;;
24559;SDS011;12727;49.934;8.656;2023-07-13T15:15:26;4.05;;;0.80;;
24559;SDS011;12727;49.934;8.656;2023-07-13T15:17:53;2.72;;;0.80;;
24559;SDS011;12727;49.934;8.656;2023-07-13T15:20:26;4.32;;;0.80;;
24559;SDS011;12727;49.934;8.656;2023-07-13T15:22:54;1.10;;;0.43;;
24559;SDS011;12727;49.934;8.656;2023-07-13T15:25:22;2.13;;;0.80;;
24559;SDS011;12727;49.934;8.656;2023-07-13T15:27:49;2.08;;;0.57;;
24559;SDS011;12727;49.934;8.656;2023-07-13T15:30:15;1.58;;;0.50;;
24559;SDS011;12727;49.934;8.656;2023-07-13T15:32:44;2.40;;;0.70;;
24559;SDS011;12727;49.934;8.656;2023-07-13T15:35:15;2.95;;;0.70;;
24559;SDS011;12727;49.934;8.656;2023-07-13T15:37:42;1.90;;;0.77;;
24559;SDS011;12727;49.934;8.656;2023-07-13T15:40:08;2.92;;;0.52;;